createdAt,value
2023-05-22T00:00:32.977Z,98532.31
2023-05-22T00:01:34.758Z,98543.03
2023-05-22T00:02:42.989Z,98534.22
2023-05-22T00:03:45.958Z,98542.50
2023-05-22T00:04:47.842Z,98535.31
2023-05-22T00:05:49.748Z,98541.44
2023-05-22T00:06:51.544Z,98530.25
2023-05-22T00:07:53.281Z,98543.03
2023-05-22T00:08:55.081Z,98540.13
2023-05-22T00:09:56.827Z,98538.50
2023-05-22T00:10:58.641Z,98539.56
2023-05-22T00:12:00.582Z,98534.97
2023-05-22T00:13:02.317Z,98532.31
2023-05-22T00:14:04.077Z,98538.72
2023-05-22T00:15:06.518Z,98537.91
2023-05-22T00:16:08.259Z,98533.81
2023-05-22T00:17:10.471Z,98532.19
2023-05-22T00:18:13.997Z,98536.47
2023-05-22T00:19:19.599Z,98535.91
2023-05-22T00:20:21.462Z,98531.66
2023-05-22T00:21:25.018Z,98538.09
2023-05-22T00:22:28.457Z,98535.69
2023-05-22T00:23:30.187Z,98537.53
2023-05-22T00:24:32.168Z,98543.41
2023-05-22T00:25:33.900Z,98533.50
2023-05-22T00:26:35.880Z,98540.69
2023-05-22T00:27:37.629Z,98541.41
2023-05-22T00:28:39.398Z,98546.97
2023-05-22T00:29:41.183Z,98540.50
2023-05-22T00:30:42.920Z,98543.09
2023-05-22T00:31:44.719Z,98544.97
2023-05-22T00:32:46.510Z,98540.69
2023-05-22T00:33:48.685Z,98538.19
2023-05-22T00:34:50.757Z,98528.38
2023-05-22T00:35:52.637Z,98529.63
2023-05-22T00:36:54.982Z,98535.38
2023-05-22T00:37:56.761Z,98538.38
2023-05-22T00:38:58.509Z,98536.97
2023-05-22T00:40:00.327Z,98539.56
2023-05-22T00:41:03.390Z,98543.91
2023-05-22T00:42:05.457Z,98536.16
2023-05-22T00:43:08.975Z,98539.97
2023-05-22T00:44:11.973Z,98539.69
2023-05-22T00:45:14.996Z,98547.88
2023-05-22T00:46:21.572Z,98536.16
2023-05-22T00:47:24.029Z,98548.19
2023-05-22T00:48:26.117Z,98543.97
2023-05-22T00:49:27.920Z,98548.78
2023-05-22T00:50:29.781Z,98547.72
2023-05-22T00:51:31.871Z,98542.47
2023-05-22T00:52:35.833Z,98537.38
2023-05-22T00:53:37.621Z,98535.56
2023-05-22T00:54:39.444Z,98538.81
2023-05-22T00:55:41.659Z,98534.31
2023-05-22T00:56:44.017Z,98547.69
2023-05-22T00:57:46.102Z,98534.94
2023-05-22T00:58:48.356Z,98547.47
2023-05-22T00:59:50.785Z,98544.47
2023-05-22T01:00:52.796Z,98537.47
2023-05-22T01:01:56.043Z,98525.19
2023-05-22T01:02:58.129Z,98537.28
2023-05-22T01:04:01.930Z,98533.50
2023-05-22T01:05:07.157Z,98537.53
2023-05-22T01:06:08.937Z,98542.63
2023-05-22T01:07:10.696Z,98538.97
2023-05-22T01:08:12.630Z,98542.72
2023-05-22T01:09:17.864Z,98537.13
2023-05-22T01:10:19.970Z,98539.63
2023-05-22T01:11:28.601Z,98541.25
2023-05-22T01:12:51.119Z,98542.38
2023-05-22T01:14:04.338Z,98541.84
2023-05-22T01:15:39.671Z,98545.09
2023-05-22T01:16:59.921Z,98545.88
2023-05-22T01:18:12.692Z,98540.28
2023-05-22T01:20:07.576Z,98547.66
2023-05-22T01:21:12.310Z,98538.34
2023-05-22T01:22:22.959Z,98546.34
2023-05-22T01:23:43.067Z,98542.88
2023-05-22T01:25:07.116Z,98539.31
2023-05-22T01:26:36.719Z,98543.84
2023-05-22T01:28:02.873Z,98546.00
2023-05-22T01:29:46.382Z,98541.22
2023-05-22T01:30:50.399Z,98543.66
2023-05-22T01:31:55.652Z,98538.31
2023-05-22T01:32:59.374Z,98544.16
2023-05-22T01:34:03.448Z,98535.94
2023-05-22T01:35:11.842Z,98536.47
2023-05-22T01:36:16.182Z,98533.81
2023-05-22T01:37:20.337Z,98535.97
2023-05-22T01:38:22.454Z,98535.97
2023-05-22T01:39:25.688Z,98526.13
2023-05-22T01:40:28.609Z,98537.59
2023-05-22T01:41:31.085Z,98537.59
2023-05-22T01:42:33.931Z,98534.13
2023-05-22T01:43:35.739Z,98537.53
2023-05-22T01:44:37.776Z,98538.09
2023-05-22T01:45:39.571Z,98532.19
2023-05-22T01:46:41.359Z,98533.00
2023-05-22T01:47:43.514Z,98530.59
2023-05-22T01:48:45.354Z,98530.56
2023-05-22T01:49:47.499Z,98520.88
2023-05-22T01:50:53.424Z,98520.56
2023-05-22T01:52:15.865Z,98526.25
2023-05-22T01:53:33.911Z,98528.41
2023-05-22T01:55:10.236Z,98525.50
2023-05-22T01:56:21.126Z,98532.69
2023-05-22T01:57:29.231Z,98535.75
2023-05-22T01:58:49.990Z,98530.72
2023-05-22T02:00:09.952Z,98529.91
2023-05-22T02:01:14.905Z,98533.13
2023-05-22T02:02:20.006Z,98536.31
2023-05-22T02:03:26.806Z,98531.78
2023-05-22T02:04:30.336Z,98534.72
2023-05-22T02:05:36.006Z,98533.38
2023-05-22T02:06:38.868Z,98535.84
2023-05-22T02:07:42.757Z,98528.59
2023-05-22T02:08:45.209Z,98523.56
2023-05-22T02:09:49.094Z,98529.94
2023-05-22T02:10:55.285Z,98522.47
2023-05-22T02:11:59.392Z,98524.84
2023-05-22T02:13:01.845Z,98532.69
2023-05-22T02:14:03.961Z,98524.59
2023-05-22T02:15:08.577Z,98536.31
2023-05-22T02:16:12.386Z,98539.00
2023-05-22T02:17:14.499Z,98528.06
2023-05-22T02:18:16.515Z,98525.94
2023-05-22T02:19:18.807Z,98529.59
2023-05-22T02:20:20.585Z,98537.84
2023-05-22T02:21:22.540Z,98528.50
2023-05-22T02:22:24.387Z,98534.94
2023-05-22T02:23:27.109Z,98536.22
2023-05-22T02:24:30.401Z,98533.75
2023-05-22T02:25:32.149Z,98536.88
2023-05-22T02:26:33.970Z,98539.22
2023-05-22T02:27:35.735Z,98541.91
2023-05-22T02:28:38.070Z,98532.84
2023-05-22T02:29:40.209Z,98536.06
2023-05-22T02:30:42.004Z,98535.25
2023-05-22T02:31:43.820Z,98540.03
2023-05-22T02:32:46.506Z,98541.91
2023-05-22T02:33:48.737Z,98532.53
2023-05-22T02:34:51.131Z,98543.97
2023-05-22T02:35:54.064Z,98534.94
2023-05-22T02:36:56.440Z,98534.97
2023-05-22T02:37:58.566Z,98531.25
2023-05-22T02:39:00.594Z,98538.19
2023-05-22T02:40:02.905Z,98536.06
2023-05-22T02:41:04.851Z,98542.00
2023-05-22T02:42:06.790Z,98538.31
2023-05-22T02:43:08.618Z,98530.09
2023-05-22T02:44:10.486Z,98534.34
2023-05-22T02:45:12.243Z,98516.38
2023-05-22T02:46:14.034Z,98526.47
2023-05-22T02:47:15.987Z,98533.16
2023-05-22T02:48:17.777Z,98530.50
2023-05-22T02:49:19.564Z,98532.44
2023-05-22T02:50:21.426Z,98529.84
2023-05-22T02:51:23.164Z,98539.41
2023-05-22T02:52:25.515Z,98535.09
2023-05-22T02:53:28.000Z,98539.69
2023-05-22T02:54:29.771Z,98536.50
2023-05-22T02:55:31.635Z,98534.06
2023-05-22T02:56:33.381Z,98513.78
2023-05-22T02:57:35.579Z,98529.31
2023-05-22T02:58:37.542Z,98535.25
2023-05-22T02:59:39.389Z,98534.44
2023-05-22T03:00:41.836Z,98524.53
2023-05-22T03:01:44.555Z,98538.56
2023-05-22T03:02:46.452Z,98533.25
2023-05-22T03:03:49.193Z,98534.06
2023-05-22T03:04:51.011Z,98536.22
2023-05-22T03:05:54.582Z,98534.34
2023-05-22T03:06:56.402Z,98533.03
2023-05-22T03:07:58.260Z,98526.06
2023-05-22T03:08:59.996Z,98532.19
2023-05-22T03:10:01.888Z,98532.50
2023-05-22T03:11:04.142Z,98527.69
2023-05-22T03:12:06.141Z,98534.63
2023-05-22T03:13:07.880Z,98539.22
2023-05-22T03:14:09.678Z,98532.81
2023-05-22T03:15:11.814Z,98534.19
2023-05-22T03:16:13.650Z,98531.00
2023-05-22T03:17:15.539Z,98538.16
2023-05-22T03:18:17.684Z,98537.84
2023-05-22T03:19:19.512Z,98533.81
2023-05-22T03:20:21.377Z,98537.66
2023-05-22T03:21:23.124Z,98540.75
2023-05-22T03:22:24.887Z,98537.53
2023-05-22T03:23:26.659Z,98542.06
2023-05-22T03:24:28.432Z,98542.38
2023-05-22T03:25:30.229Z,98548.00
2023-05-22T03:26:31.999Z,98544.59
2023-05-22T03:27:33.740Z,98538.97
2023-05-22T03:28:36.079Z,98543.66
2023-05-22T03:29:37.878Z,98541.00
2023-05-22T03:30:39.781Z,98543.59
2023-05-22T03:31:41.708Z,98539.06
2023-05-22T03:32:43.540Z,98544.22
2023-05-22T03:33:45.309Z,98542.06
2023-05-22T03:34:47.122Z,98539.41
2023-05-22T03:35:48.869Z,98541.00
2023-05-22T03:36:50.893Z,98538.56
2023-05-22T03:37:52.685Z,98541.50
2023-05-22T03:38:54.445Z,98539.88
2023-05-22T03:39:56.311Z,98531.88
2023-05-22T03:40:58.043Z,98529.78
2023-05-22T03:41:59.771Z,98537.97
2023-05-22T03:43:01.582Z,98547.63
2023-05-22T03:44:03.686Z,98538.31
2023-05-22T03:45:06.204Z,98549.00
2023-05-22T03:46:08.018Z,98533.56
2023-05-22T03:47:09.869Z,98545.34
2023-05-22T03:48:12.800Z,98538.91
2023-05-22T03:49:14.792Z,98543.78
2023-05-22T03:50:16.588Z,98540.84
2023-05-22T03:51:20.225Z,98540.03
2023-05-22T03:52:22.912Z,98534.25
2023-05-22T03:53:24.645Z,98531.53
2023-05-22T03:54:26.437Z,98541.66
2023-05-22T03:55:28.198Z,98544.25
2023-05-22T03:56:29.977Z,98546.41
2023-05-22T03:57:31.723Z,98546.41
2023-05-22T03:58:33.523Z,98543.00
2023-05-22T03:59:35.275Z,98536.31
2023-05-22T04:00:38.560Z,98538.72
2023-05-22T04:01:40.490Z,98543.50
2023-05-22T04:02:45.292Z,98545.13
2023-05-22T04:03:47.609Z,98539.88
2023-05-22T04:04:49.444Z,98550.03
2023-05-22T04:05:51.655Z,98544.97
2023-05-22T04:06:54.170Z,98553.03
2023-05-22T04:07:56.017Z,98549.06
2023-05-22T04:08:57.760Z,98551.50
2023-05-22T04:09:59.511Z,98549.69
2023-05-22T04:11:01.550Z,98540.88
2023-05-22T04:12:03.778Z,98558.50
2023-05-22T04:13:06.043Z,98552.66
2023-05-22T04:14:08.112Z,98548.44
2023-05-22T04:15:10.078Z,98541.47
2023-05-22T04:16:11.913Z,98550.34
2023-05-22T04:17:13.710Z,98552.22
2023-05-22T04:18:15.673Z,98547.44
2023-05-22T04:19:18.246Z,98554.66
2023-05-22T04:20:22.346Z,98554.13
2023-05-22T04:21:24.649Z,98552.81
2023-05-22T04:22:31.043Z,98543.22
2023-05-22T04:23:32.952Z,98551.75
2023-05-22T04:24:34.986Z,98552.84
2023-05-22T04:25:36.766Z,98549.13
2023-05-22T04:26:41.656Z,98558.50
2023-05-22T04:27:44.356Z,98552.06
2023-05-22T04:28:46.358Z,98545.66
2023-05-22T04:29:48.548Z,98544.66
2023-05-22T04:30:50.366Z,98549.22
2023-05-22T04:31:54.537Z,98544.13
2023-05-22T04:32:57.447Z,98541.47
2023-05-22T04:34:00.381Z,98544.44
2023-05-22T04:35:02.751Z,98551.66
2023-05-22T04:36:05.125Z,98546.03
2023-05-22T04:37:07.059Z,98550.91
2023-05-22T04:38:08.822Z,98557.34
2023-05-22T04:39:10.560Z,98559.75
2023-05-22T04:40:15.242Z,98560.28
2023-05-22T04:41:18.627Z,98550.94
2023-05-22T04:42:22.744Z,98551.75
2023-05-22T04:43:26.899Z,98552.84
2023-05-22T04:44:30.699Z,98555.53
2023-05-22T04:45:33.173Z,98562.19
2023-05-22T04:46:36.193Z,98556.59
2023-05-22T04:47:38.526Z,98555.00
2023-05-22T04:48:40.471Z,98563.31
2023-05-22T04:49:43.785Z,98556.91
2023-05-22T04:50:46.525Z,98556.09
2023-05-22T04:51:48.479Z,98563.09
2023-05-22T04:52:50.232Z,98568.16
2023-05-22T04:53:52.211Z,98562.81
2023-05-22T04:54:55.565Z,98556.41
2023-05-22T04:55:57.697Z,98562.03
2023-05-22T04:56:59.465Z,98555.38
2023-05-22T04:58:01.696Z,98560.97
2023-05-22T04:59:04.938Z,98553.75
2023-05-22T05:00:08.163Z,98560.44
2023-05-22T05:01:11.041Z,98556.72
2023-05-22T05:02:12.814Z,98566.06
2023-05-22T05:03:14.643Z,98561.56
2023-05-22T05:04:17.705Z,98563.66
2023-05-22T05:05:19.550Z,98563.41
2023-05-22T05:06:21.836Z,98557.81
2023-05-22T05:07:23.869Z,98561.28
2023-05-22T05:08:25.690Z,98561.81
2023-05-22T05:09:27.455Z,98553.53
2023-05-22T05:10:29.230Z,98554.34
2023-05-22T05:11:31.100Z,98557.59
2023-05-22T05:12:32.903Z,98553.31
2023-05-22T05:13:34.674Z,98558.09
2023-05-22T05:14:36.457Z,98554.91
2023-05-22T05:15:38.297Z,98557.59
2023-05-22T05:16:40.069Z,98557.31
2023-05-22T05:17:41.861Z,98558.38
2023-05-22T05:18:43.852Z,98565.59
2023-05-22T05:19:45.794Z,98552.22
2023-05-22T05:20:47.552Z,98566.13
2023-05-22T05:21:49.718Z,98562.94
2023-05-22T05:22:51.587Z,98558.34
2023-05-22T05:23:53.430Z,98560.22
2023-05-22T05:24:55.165Z,98559.97
2023-05-22T05:25:57.054Z,98561.03
2023-05-22T05:26:58.900Z,98563.72
2023-05-22T05:28:00.693Z,98561.84
2023-05-22T05:29:02.478Z,98571.47
2023-05-22T05:30:04.779Z,98563.72
2023-05-22T05:31:07.861Z,98568.00
2023-05-22T05:32:11.735Z,98565.06
2023-05-22T05:33:13.717Z,98560.75
2023-05-22T05:34:15.590Z,98566.38
2023-05-22T05:35:17.895Z,98555.97
2023-05-22T05:36:19.634Z,98561.03
2023-05-22T05:37:21.369Z,98560.22
2023-05-22T05:38:23.321Z,98559.44
2023-05-22T05:39:25.118Z,98561.31
2023-05-22T05:40:26.861Z,98561.84
2023-05-22T05:41:28.698Z,98567.19
2023-05-22T05:42:30.589Z,98558.09
2023-05-22T05:43:34.850Z,98564.00
2023-05-22T05:44:38.798Z,98568.28
2023-05-22T05:45:42.493Z,98568.81
2023-05-22T05:46:47.432Z,98571.50
2023-05-22T05:47:49.225Z,98578.97
2023-05-22T05:48:51.105Z,98585.41
2023-05-22T05:49:52.888Z,98587.00
2023-05-22T05:50:54.632Z,98590.22
2023-05-22T05:51:56.740Z,98593.97
2023-05-22T05:52:58.612Z,98597.44
2023-05-22T05:54:00.358Z,98609.75
2023-05-22T05:55:02.408Z,98609.47
2023-05-22T05:56:04.816Z,98610.00
2023-05-22T05:57:06.894Z,98607.31
2023-05-22T05:58:09.269Z,98618.00
2023-05-22T05:59:11.016Z,98609.19
2023-05-22T06:00:13.621Z,98604.63
2023-05-22T06:01:16.070Z,98608.38
2023-05-22T06:02:17.828Z,98605.69
2023-05-22T06:03:19.668Z,98600.59
2023-05-22T06:04:21.575Z,98607.81
2023-05-22T06:05:23.496Z,98601.94
2023-05-22T06:06:26.276Z,98607.00
2023-05-22T06:07:28.758Z,98599.25
2023-05-22T06:08:32.356Z,98587.47
2023-05-22T06:09:34.302Z,98601.66
2023-05-22T06:10:36.274Z,98599.56
2023-05-22T06:11:38.128Z,98604.38
2023-05-22T06:12:40.416Z,98605.19
2023-05-22T06:13:42.147Z,98604.13
2023-05-22T06:14:44.250Z,98608.94
2023-05-22T06:15:46.140Z,98608.66
2023-05-22T06:16:47.999Z,98602.53
2023-05-22T06:17:49.895Z,98615.34
2023-05-22T06:18:52.843Z,98598.25
2023-05-22T06:19:54.642Z,98611.34
2023-05-22T06:21:00.195Z,98614.81
2023-05-22T06:22:01.961Z,98616.97
2023-05-22T06:23:03.753Z,98611.34
2023-05-22T06:24:06.075Z,98611.88
2023-05-22T06:25:08.253Z,98611.09
2023-05-22T06:26:10.508Z,98616.69
2023-05-22T06:27:12.251Z,98614.81
2023-05-22T06:28:13.977Z,98619.56
2023-05-22T06:29:15.822Z,98605.00
2023-05-22T06:30:28.362Z,98609.91
2023-05-22T06:31:39.907Z,98610.34
2023-05-22T06:32:41.944Z,98618.53
2023-05-22T06:33:43.963Z,98614.16
2023-05-22T06:34:48.111Z,98605.28
2023-05-22T06:35:49.845Z,98616.13
2023-05-22T06:36:52.218Z,98618.44
2023-05-22T06:37:54.804Z,98622.75
2023-05-22T06:38:56.562Z,98616.59
2023-05-22T06:39:58.313Z,98618.56
2023-05-22T06:41:00.129Z,98618.97
2023-05-22T06:42:02.083Z,98621.25
2023-05-22T06:43:03.836Z,98624.72
2023-05-22T06:44:06.630Z,98625.75
2023-05-22T06:45:08.722Z,98623.22
2023-05-22T06:46:10.710Z,98624.91
2023-05-22T06:47:13.173Z,98618.19
2023-05-22T06:48:14.953Z,98625.63
2023-05-22T06:49:18.205Z,98628.53
2023-05-22T06:50:21.069Z,98622.19
2023-05-22T06:51:24.480Z,98619.31
2023-05-22T06:52:26.342Z,98624.53
2023-05-22T06:53:28.152Z,98626.06
2023-05-22T06:54:30.003Z,98625.06
2023-05-22T06:55:31.761Z,98625.97
2023-05-22T06:56:33.585Z,98625.28
2023-05-22T06:57:35.738Z,98626.84
2023-05-22T06:58:37.523Z,98624.88
2023-05-22T06:59:39.298Z,98618.47
2023-05-22T07:00:41.421Z,98621.16
2023-05-22T07:01:43.429Z,98619.25
2023-05-22T07:02:45.392Z,98627.25
2023-05-22T07:03:47.216Z,98623.66
2023-05-22T07:04:49.147Z,98614.78
2023-05-22T07:05:51.702Z,98635.97
2023-05-22T07:06:53.818Z,98625.53
2023-05-22T07:07:55.876Z,98629.44
2023-05-22T07:08:57.795Z,98625.44
2023-05-22T07:09:59.612Z,98620.34
2023-05-22T07:11:02.198Z,98629.03
2023-05-22T07:12:04.216Z,98628.06
2023-05-22T07:13:06.041Z,98623.66
2023-05-22T07:14:08.078Z,98623.56
2023-05-22T07:15:12.307Z,98625.34
2023-05-22T07:16:14.931Z,98630.75
2023-05-22T07:17:16.882Z,98628.84
2023-05-22T07:18:19.266Z,98622.66
2023-05-22T07:19:21.486Z,98632.00
2023-05-22T07:20:23.262Z,98623.56
2023-05-22T07:21:25.089Z,98625.53
2023-05-22T07:22:26.858Z,98632.91
2023-05-22T07:23:28.729Z,98625.28
2023-05-22T07:24:31.308Z,98626.78
2023-05-22T07:25:33.084Z,98626.72
2023-05-22T07:26:38.297Z,98629.50
2023-05-22T07:27:40.069Z,98628.25
2023-05-22T07:28:42.007Z,98625.56
2023-05-22T07:29:43.729Z,98629.88
2023-05-22T07:30:45.607Z,98626.56
2023-05-22T07:31:47.392Z,98619.00
2023-05-22T07:32:49.293Z,98630.03
2023-05-22T07:33:51.098Z,98629.09
2023-05-22T07:34:52.837Z,98625.66
2023-05-22T07:35:54.647Z,98626.97
2023-05-22T07:36:57.022Z,98619.34
2023-05-22T07:37:58.821Z,98621.63
2023-05-22T07:39:01.117Z,98625.78
2023-05-22T07:40:05.851Z,98620.03
2023-05-22T07:41:08.237Z,98625.63
2023-05-22T07:42:10.081Z,98619.72
2023-05-22T07:43:11.926Z,98617.50
2023-05-22T07:44:13.736Z,98626.22
2023-05-22T07:45:15.598Z,98625.72
2023-05-22T07:46:20.123Z,98619.31
2023-05-22T07:47:21.894Z,98619.00
2023-05-22T07:48:23.658Z,98626.69
2023-05-22T07:49:25.753Z,98624.06
2023-05-22T07:50:28.020Z,98611.56
2023-05-22T07:51:33.061Z,98629.41
2023-05-22T07:52:34.842Z,98613.09
2023-05-22T07:53:36.576Z,98618.75
2023-05-22T07:54:38.383Z,98624.22
2023-05-22T07:55:40.590Z,98615.69
2023-05-22T07:56:42.760Z,98625.28
2023-05-22T07:57:44.817Z,98622.81
2023-05-22T07:58:48.562Z,98622.84
2023-05-22T07:59:50.932Z,98619.38
2023-05-22T08:00:52.996Z,98621.09
2023-05-22T08:01:56.603Z,98618.44
2023-05-22T08:02:59.945Z,98611.09
2023-05-22T08:04:02.191Z,98619.88
2023-05-22T08:05:04.849Z,98618.78
2023-05-22T08:06:07.099Z,98613.19
2023-05-22T08:07:08.916Z,98625.13
2023-05-22T08:08:10.743Z,98618.44
2023-05-22T08:09:12.535Z,98614.56
2023-05-22T08:10:16.046Z,98617.66
2023-05-22T08:11:17.784Z,98622.31
2023-05-22T08:12:19.509Z,98623.84
2023-05-22T08:13:22.514Z,98615.75
2023-05-22T08:14:24.412Z,98617.53
2023-05-22T08:15:26.631Z,98613.97
2023-05-22T08:16:28.396Z,98621.25
2023-05-22T08:17:30.210Z,98617.97
2023-05-22T08:18:32.081Z,98617.50
2023-05-22T08:19:33.995Z,98627.34
2023-05-22T08:20:36.040Z,98627.53
2023-05-22T08:21:37.967Z,98621.63
2023-05-22T08:22:39.872Z,98623.69
2023-05-22T08:23:41.705Z,98624.03
2023-05-22T08:24:43.447Z,98618.47
2023-05-22T08:25:45.194Z,98625.78
2023-05-22T08:26:46.967Z,98624.03
2023-05-22T08:27:48.809Z,98619.91
2023-05-22T08:28:51.126Z,98617.50
2023-05-22T08:29:52.915Z,98626.91
2023-05-22T08:30:55.398Z,98632.16
2023-05-22T08:31:58.438Z,98623.84
2023-05-22T08:33:00.301Z,98622.44
2023-05-22T08:34:06.536Z,98613.81
2023-05-22T08:35:08.605Z,98619.41
2023-05-22T08:36:10.414Z,98624.03
2023-05-22T08:37:14.220Z,98619.97
2023-05-22T08:38:16.448Z,98622.78
2023-05-22T08:39:19.324Z,98617.97
2023-05-22T08:40:22.086Z,98617.66
2023-05-22T08:41:23.902Z,98619.38
2023-05-22T08:42:25.793Z,98615.91
2023-05-22T08:43:28.832Z,98618.41
2023-05-22T08:44:30.810Z,98618.69
2023-05-22T08:45:37.072Z,98611.59
2023-05-22T08:46:41.908Z,98626.63
2023-05-22T08:47:44.788Z,98616.44
2023-05-22T08:48:48.010Z,98619.47
2023-05-22T08:49:52.228Z,98621.31
2023-05-22T08:50:58.380Z,98618.88
2023-05-22T08:52:05.880Z,98615.97
2023-05-22T08:53:08.521Z,98616.50
2023-05-22T08:54:10.339Z,98617.25
2023-05-22T08:55:12.418Z,98624.56
2023-05-22T08:56:14.866Z,98618.41
2023-05-22T08:57:18.204Z,98616.03
2023-05-22T08:58:21.051Z,98606.03
2023-05-22T08:59:23.402Z,98609.38
2023-05-22T09:00:25.408Z,98614.59
2023-05-22T09:01:29.388Z,98606.72
2023-05-22T09:02:32.270Z,98614.31
2023-05-22T09:03:37.004Z,98611.31
2023-05-22T09:04:41.314Z,98614.41
2023-05-22T09:05:45.547Z,98616.53
2023-05-22T09:06:48.008Z,98613.72
2023-05-22T09:07:50.133Z,98610.44
2023-05-22T09:08:52.272Z,98614.03
2023-05-22T09:09:54.020Z,98615.34
2023-05-22T09:10:56.519Z,98616.72
2023-05-22T09:11:58.531Z,98612.84
2023-05-22T09:13:05.027Z,98617.06
2023-05-22T09:14:08.672Z,98609.09
2023-05-22T09:15:11.793Z,98606.19
2023-05-22T09:16:14.210Z,98609.53
2023-05-22T09:17:17.215Z,98605.59
2023-05-22T09:18:19.190Z,98609.09
2023-05-22T09:19:21.526Z,98605.72
2023-05-22T09:20:23.362Z,98605.28
2023-05-22T09:21:30.266Z,98607.19
2023-05-22T09:22:38.200Z,98607.66
2023-05-22T09:23:40.046Z,98607.00
2023-05-22T09:24:43.450Z,98607.88
2023-05-22T09:25:45.752Z,98616.59
2023-05-22T09:26:48.475Z,98614.38
2023-05-22T09:27:50.488Z,98612.06
2023-05-22T09:28:52.246Z,98613.84
2023-05-22T09:29:59.729Z,98608.88
2023-05-22T09:31:04.257Z,98614.13
2023-05-22T09:32:13.893Z,98609.72
2023-05-22T09:33:17.230Z,98609.69
2023-05-22T09:34:19.158Z,98606.16
2023-05-22T09:35:21.097Z,98607.00
2023-05-22T09:36:23.144Z,98608.09
2023-05-22T09:37:28.784Z,98611.47
2023-05-22T09:38:30.954Z,98612.09
2023-05-22T09:39:41.281Z,98614.94
2023-05-22T09:40:43.118Z,98607.47
2023-05-22T09:41:44.898Z,98607.94
2023-05-22T09:42:46.705Z,98602.38
2023-05-22T09:43:51.650Z,98605.25
2023-05-22T09:44:53.445Z,98602.19
2023-05-22T09:46:02.013Z,98601.88
2023-05-22T09:47:06.252Z,98598.22
2023-05-22T09:48:10.138Z,98599.75
2023-05-22T09:49:15.000Z,98599.09
2023-05-22T09:50:18.685Z,98605.16
2023-05-22T09:51:27.508Z,98604.66
2023-05-22T09:52:29.578Z,98597.44
2023-05-22T09:53:33.347Z,98601.00
2023-05-22T09:54:38.555Z,98598.97
2023-05-22T09:55:40.782Z,98597.63
2023-05-22T09:56:44.879Z,98604.47
2023-05-22T09:57:48.479Z,98603.66
2023-05-22T09:58:52.813Z,98603.75
2023-05-22T09:59:58.588Z,98605.06
2023-05-22T10:01:01.665Z,98601.56
2023-05-22T10:02:04.338Z,98605.06
2023-05-22T10:03:12.213Z,98605.56
2023-05-22T10:04:15.183Z,98593.63
2023-05-22T10:05:22.738Z,98585.47
2023-05-22T10:06:27.170Z,98586.91
2023-05-22T10:07:37.725Z,98577.69
2023-05-22T10:08:44.718Z,98586.28
2023-05-22T10:09:52.826Z,98586.75
2023-05-22T10:10:54.863Z,98575.13
2023-05-22T10:12:00.071Z,98577.50
2023-05-22T10:13:04.368Z,98578.00
2023-05-22T10:14:07.664Z,98577.03
2023-05-22T10:15:11.437Z,98582.63
2023-05-22T10:16:16.369Z,98578.94
2023-05-22T10:17:19.059Z,98576.34
2023-05-22T10:18:22.367Z,98573.78
2023-05-22T10:19:27.451Z,98575.50
2023-05-22T10:20:30.315Z,98559.38
2023-05-22T10:21:33.147Z,98574.69
2023-05-22T10:22:37.748Z,98571.47
2023-05-22T10:23:39.844Z,98555.75
2023-05-22T10:24:42.189Z,98568.38
2023-05-22T10:25:45.759Z,98566.63
2023-05-22T10:26:47.872Z,98575.88
2023-05-22T10:27:53.119Z,98573.19
2023-05-22T10:29:05.532Z,98575.28
2023-05-22T10:30:30.315Z,98563.97
2023-05-22T10:31:50.417Z,98574.31
2023-05-22T10:33:05.124Z,98570.31
2023-05-22T10:34:11.437Z,98564.72
2023-05-22T10:35:20.053Z,98568.84
2023-05-22T10:36:45.452Z,98565.72
2023-05-22T10:38:07.424Z,98568.56
2023-05-22T10:39:41.160Z,98574.16
2023-05-22T10:40:46.145Z,98564.59
2023-05-22T10:41:48.100Z,98565.88
2023-05-22T10:42:50.084Z,98560.25
2023-05-22T10:43:52.327Z,98564.94
2023-05-22T10:44:54.170Z,98560.56
2023-05-22T10:46:06.964Z,98571.16
2023-05-22T10:47:13.654Z,98565.63
2023-05-22T10:48:16.138Z,98557.13
2023-05-22T10:49:24.085Z,98557.31
2023-05-22T10:50:26.099Z,98549.88
2023-05-22T10:51:28.098Z,98553.13
2023-05-22T10:52:29.916Z,98549.63
2023-05-22T10:53:32.540Z,98546.44
2023-05-22T10:54:45.693Z,98545.25
2023-05-22T10:55:51.661Z,98546.66
2023-05-22T10:57:10.323Z,98545.34
2023-05-22T10:58:19.322Z,98540.69
2023-05-22T10:59:34.290Z,98546.41
2023-05-22T11:00:38.052Z,98542.91
2023-05-22T11:01:40.159Z,98540.06
2023-05-22T11:02:44.138Z,98535.44
2023-05-22T11:03:58.147Z,98539.22
2023-05-22T11:05:21.762Z,98535.00
2023-05-22T11:06:33.410Z,98530.44
2023-05-22T11:07:41.573Z,98524.31
2023-05-22T11:08:43.331Z,98524.72
2023-05-22T11:09:48.660Z,98528.25
2023-05-22T11:10:59.321Z,98522.06
2023-05-22T11:12:20.836Z,98528.66
2023-05-22T11:13:29.017Z,98517.19
2023-05-22T11:14:31.474Z,98520.16
2023-05-22T11:15:33.258Z,98524.00
2023-05-22T11:16:35.161Z,98517.13
2023-05-22T11:17:40.061Z,98512.53
2023-05-22T11:18:45.117Z,98515.31
2023-05-22T11:20:08.981Z,98517.69
2023-05-22T11:21:12.227Z,98515.91
2023-05-22T11:22:15.248Z,98511.53
2023-05-22T11:23:19.676Z,98505.88
2023-05-22T11:24:21.577Z,98503.81
2023-05-22T11:25:25.036Z,98517.16
2023-05-22T11:26:28.168Z,98514.16
2023-05-22T11:27:30.256Z,98513.97
2023-05-22T11:28:32.240Z,98519.59
2023-05-22T11:29:34.475Z,98524.25
2023-05-22T11:30:38.181Z,98523.00
2023-05-22T11:31:41.197Z,98520.22
2023-05-22T11:32:45.346Z,98520.47
2023-05-22T11:33:48.344Z,98526.16
2023-05-22T11:34:50.766Z,98526.72
2023-05-22T11:35:54.153Z,98527.75
2023-05-22T11:37:00.226Z,98530.81
2023-05-22T11:38:05.286Z,98526.97
2023-05-22T11:39:09.786Z,98521.03
2023-05-22T11:40:16.832Z,98515.31
2023-05-22T11:41:18.693Z,98522.63
2023-05-22T11:42:20.500Z,98524.00
2023-05-22T11:43:36.405Z,98518.03
2023-05-22T11:44:40.764Z,98528.50
2023-05-22T11:45:42.523Z,98534.94
2023-05-22T11:46:44.949Z,98529.69
2023-05-22T11:47:47.061Z,98524.25
2023-05-22T11:48:48.896Z,98529.19
2023-05-22T11:49:52.309Z,98527.81
2023-05-22T11:50:54.071Z,98534.78
2023-05-22T11:51:56.575Z,98541.59
2023-05-22T11:52:59.497Z,98529.63
2023-05-22T11:54:01.882Z,98539.56
2023-05-22T11:55:08.286Z,98544.88
2023-05-22T11:56:10.042Z,98544.53
2023-05-22T11:57:11.784Z,98555.41
2023-05-22T11:58:13.574Z,98564.06
2023-05-22T11:59:15.326Z,98567.16
2023-05-22T12:00:17.955Z,98571.94
2023-05-22T12:01:19.902Z,98558.41
2023-05-22T12:02:21.829Z,98548.19
2023-05-22T12:03:25.205Z,98547.53
2023-05-22T12:04:28.055Z,98547.66
2023-05-22T12:05:32.449Z,98543.66
2023-05-22T12:06:34.739Z,98537.16
2023-05-22T12:07:36.599Z,98534.44
2023-05-22T12:08:38.470Z,98536.22
2023-05-22T12:09:41.028Z,98542.25
2023-05-22T12:10:52.817Z,98543.53
2023-05-22T12:12:00.844Z,98541.25
2023-05-22T12:13:02.678Z,98531.41
2023-05-22T12:14:05.174Z,98537.63
2023-05-22T12:15:07.632Z,98534.78
2023-05-22T12:16:22.128Z,98541.31
2023-05-22T12:17:24.112Z,98537.53
2023-05-22T12:18:26.949Z,98542.13
2023-05-22T12:19:29.077Z,98537.19
2023-05-22T12:20:31.400Z,98539.84
2023-05-22T12:21:33.374Z,98530.91
2023-05-22T12:22:42.106Z,98537.44
2023-05-22T12:23:52.699Z,98535.06
2023-05-22T12:24:55.717Z,98541.56
2023-05-22T12:25:59.082Z,98537.06
2023-05-22T12:27:01.416Z,98534.13
2023-05-22T12:28:03.485Z,98532.09
2023-05-22T12:29:05.361Z,98532.56